createdAt,value
2022-12-26T00:02:04.363Z,99221.47
2022-12-26T00:04:51.101Z,99231.19
2022-12-26T00:07:20.666Z,99226.78
2022-12-26T00:09:48.179Z,99215.56
2022-12-26T00:12:15.676Z,99215.66
2022-12-26T00:14:43.181Z,99208.03
2022-12-26T00:17:10.696Z,99221.91
2022-12-26T00:19:38.255Z,99224.19
2022-12-26T00:22:05.836Z,99222.47
2022-12-26T00:24:34.681Z,99218.28
2022-12-26T00:27:02.141Z,99216.31
2022-12-26T00:29:29.620Z,99226.78
2022-12-26T00:31:57.140Z,99215.06
2022-12-26T00:34:24.672Z,99210.09
2022-12-26T00:36:52.141Z,99206.00
2022-12-26T00:39:19.621Z,99206.69
2022-12-26T00:41:48.420Z,99204.66
2022-12-26T00:44:15.888Z,99215.44
2022-12-26T00:46:43.559Z,99212.47
2022-12-26T00:49:11.034Z,99206.94
2022-12-26T00:51:38.510Z,99202.09
2022-12-26T00:54:06.024Z,99204.19
2022-12-26T00:56:33.530Z,99199.16
2022-12-26T00:59:02.352Z,99200.78
2022-12-26T01:01:30.908Z,99205.75
2022-12-26T01:03:59.266Z,99211.06
2022-12-26T01:06:26.940Z,99223.06
2022-12-26T01:08:55.032Z,99223.31
2022-12-26T01:11:36.799Z,99232.72
2022-12-26T01:14:06.281Z,99240.38
2022-12-26T01:16:33.917Z,99230.81
2022-12-26T01:19:01.592Z,99229.91
2022-12-26T01:21:29.086Z,99246.16
2022-12-26T01:23:56.661Z,99235.88
2022-12-26T01:26:24.211Z,99241.81
2022-12-26T01:28:52.854Z,99234.66
2022-12-26T01:31:23.261Z,99237.25
2022-12-26T01:33:51.452Z,99252.09
2022-12-26T01:36:19.456Z,99255.44
2022-12-26T01:38:47.287Z,99259.22
2022-12-26T01:41:19.827Z,99265.06
2022-12-26T01:43:57.294Z,99274.56
2022-12-26T01:46:31.767Z,99285.47
2022-12-26T01:49:01.941Z,99273.84
2022-12-26T01:51:33.943Z,99276.41
2022-12-26T01:54:37.968Z,99271.09
2022-12-26T01:56:53.010Z,99274.91
2022-12-26T01:59:24.366Z,99269.16
2022-12-26T02:01:55.114Z,99266.97
2022-12-26T02:04:44.955Z,99271.41
2022-12-26T02:07:12.794Z,99274.59
2022-12-26T02:09:40.908Z,99286.63
2022-12-26T02:12:36.675Z,99276.28
2022-12-26T02:15:04.886Z,99267.06
2022-12-26T02:17:33.745Z,99267.97
2022-12-26T02:20:07.259Z,99280.38
2022-12-26T02:23:00.257Z,99280.72
2022-12-26T02:25:47.476Z,99295.22
2022-12-26T02:28:49.487Z,99286.56
2022-12-26T02:31:23.396Z,99285.47
2022-12-26T02:34:05.964Z,99291.78
2022-12-26T02:36:56.743Z,99284.13
2022-12-26T02:39:43.407Z,99275.66
2022-12-26T02:42:35.610Z,99290.22
2022-12-26T02:45:30.570Z,99284.69
2022-12-26T02:48:08.136Z,99279.63
2022-12-26T02:51:04.895Z,99291.75
2022-12-26T02:53:58.256Z,99290.44
2022-12-26T02:56:48.885Z,99274.41
2022-12-26T02:59:55.423Z,99286.66
2022-12-26T03:02:49.957Z,99282.44
2022-12-26T03:05:43.099Z,99285.53
2022-12-26T03:08:34.938Z,99281.34
2022-12-26T03:11:20.167Z,99288.84
2022-12-26T03:13:51.296Z,99288.16
2022-12-26T03:16:39.332Z,99294.16
2022-12-26T03:19:10.980Z,99297.72
2022-12-26T03:21:43.338Z,99291.59
2022-12-26T03:24:13.247Z,99292.28
2022-12-26T03:26:47.557Z,99301.34
2022-12-26T03:29:35.680Z,99306.97
2022-12-26T03:32:05.986Z,99301.56
2022-12-26T03:34:35.214Z,99296.72
2022-12-26T03:37:22.279Z,99292.13
2022-12-26T03:40:14.450Z,99295.94
2022-12-26T03:43:24.257Z,99303.34
2022-12-26T03:46:17.229Z,99321.38
2022-12-26T03:49:10.494Z,99316.16
2022-12-26T03:52:03.256Z,99318.66
2022-12-26T03:54:56.909Z,99318.53
2022-12-26T03:57:49.782Z,99304.06
2022-12-26T04:00:35.070Z,99309.41
2022-12-26T04:03:26.421Z,99314.19
2022-12-26T04:06:14.863Z,99313.84
2022-12-26T04:09:06.411Z,99316.25
2022-12-26T04:11:55.178Z,99318.69
2022-12-26T04:14:54.516Z,99330.97
2022-12-26T04:17:47.342Z,99330.72
2022-12-26T04:20:21.420Z,99328.38
2022-12-26T04:23:11.259Z,99333.97
2022-12-26T04:26:03.233Z,99342.41
2022-12-26T04:28:49.847Z,99350.16
2022-12-26T04:31:40.261Z,99373.31
2022-12-26T04:34:38.951Z,99364.22
2022-12-26T04:37:28.429Z,99370.63
2022-12-26T04:40:16.318Z,99354.00
2022-12-26T04:43:47.032Z,99346.19
2022-12-26T04:45:52.829Z,99354.50
2022-12-26T04:48:38.176Z,99350.47
2022-12-26T04:51:06.304Z,99364.13
2022-12-26T04:53:33.789Z,99363.59
2022-12-26T04:56:01.276Z,99364.81
2022-12-26T04:58:28.805Z,99362.41
2022-12-26T05:01:18.626Z,99368.66
2022-12-26T05:04:04.144Z,99372.50
2022-12-26T05:06:49.614Z,99369.47
2022-12-26T05:09:35.919Z,99371.06
2022-12-26T05:12:04.655Z,99373.28
2022-12-26T05:14:32.443Z,99368.81
2022-12-26T05:17:19.223Z,99369.34
2022-12-26T05:20:04.628Z,99367.03
2022-12-26T05:22:57.741Z,99373.31
2022-12-26T05:25:45.594Z,99371.94
2022-12-26T05:28:32.748Z,99383.38
2022-12-26T05:31:01.894Z,99372.28
2022-12-26T05:33:48.587Z,99368.78
2022-12-26T05:36:18.236Z,99366.63
2022-12-26T05:38:45.749Z,99373.66
2022-12-26T05:41:13.290Z,99376.78
2022-12-26T05:43:40.785Z,99365.84
2022-12-26T05:46:08.354Z,99370.16
2022-12-26T05:48:37.196Z,99377.72
2022-12-26T05:51:05.637Z,99380.00
2022-12-26T05:53:34.024Z,99366.69
2022-12-26T05:56:04.709Z,99386.59
2022-12-26T05:58:32.426Z,99384.72
2022-12-26T06:01:08.340Z,99380.84
2022-12-26T06:03:38.186Z,99381.22
2022-12-26T06:06:06.837Z,99380.44
2022-12-26T06:08:34.655Z,99381.91
2022-12-26T06:11:04.748Z,99375.41
2022-12-26T06:13:32.295Z,99367.03
2022-12-26T06:15:59.872Z,99360.84
2022-12-26T06:18:27.370Z,99357.34
2022-12-26T06:20:56.211Z,99354.34
2022-12-26T06:23:23.741Z,99362.91
2022-12-26T06:25:55.716Z,99357.25
2022-12-26T06:28:24.603Z,99351.84
2022-12-26T06:30:52.945Z,99345.66
2022-12-26T06:33:21.094Z,99349.44
2022-12-26T06:35:48.569Z,99355.13
2022-12-26T06:38:17.406Z,99362.25
2022-12-26T06:40:44.887Z,99363.88
2022-12-26T06:43:12.360Z,99362.44
2022-12-26T06:45:39.847Z,99353.22
2022-12-26T06:48:07.568Z,99357.84
2022-12-26T06:50:37.208Z,99363.00
2022-12-26T06:53:04.722Z,99359.56
2022-12-26T06:55:33.540Z,99365.16
2022-12-26T06:58:01.012Z,99389.66
2022-12-26T07:00:30.097Z,99381.66
2022-12-26T07:02:57.844Z,99376.50
2022-12-26T07:05:25.347Z,99376.16
2022-12-26T07:07:53.456Z,99374.53
2022-12-26T07:10:21.463Z,99373.09
2022-12-26T07:12:50.399Z,99383.56
2022-12-26T07:15:18.116Z,99389.47
2022-12-26T07:17:45.657Z,99403.56
2022-12-26T07:20:13.717Z,99411.22
2022-12-26T07:22:41.269Z,99413.78
2022-12-26T07:25:09.748Z,99420.56
2022-12-26T07:27:37.305Z,99429.38
2022-12-26T07:30:07.435Z,99434.44
2022-12-26T07:32:34.912Z,99425.06
2022-12-26T07:35:02.497Z,99420.28
2022-12-26T07:37:29.937Z,99418.97
2022-12-26T07:39:59.371Z,99429.28
2022-12-26T07:42:27.202Z,99424.72
2022-12-26T07:44:54.791Z,99428.06
2022-12-26T07:47:23.591Z,99425.59
2022-12-26T07:49:51.110Z,99447.38
2022-12-26T07:52:19.793Z,99440.03
2022-12-26T07:54:47.277Z,99444.22
2022-12-26T07:57:46.841Z,99449.72
2022-12-26T08:00:02.243Z,99447.38
2022-12-26T08:02:31.371Z,99454.53
2022-12-26T08:04:59.016Z,99448.63
2022-12-26T08:07:26.717Z,99445.75
2022-12-26T08:09:54.230Z,99453.06
2022-12-26T08:12:24.339Z,99451.28
2022-12-26T08:14:51.925Z,99458.38
2022-12-26T08:17:19.583Z,99459.75
2022-12-26T08:19:48.482Z,99461.56
2022-12-26T08:22:16.070Z,99472.41
2022-12-26T08:24:43.547Z,99463.69
2022-12-26T08:27:12.032Z,99468.31
2022-12-26T08:29:39.512Z,99469.28
2022-12-26T08:32:07.050Z,99453.19
2022-12-26T08:34:35.900Z,99466.78
2022-12-26T08:37:04.831Z,99474.25
2022-12-26T08:39:32.322Z,99471.63
2022-12-26T08:41:59.773Z,99469.13
2022-12-26T08:44:28.503Z,99470.34
2022-12-26T08:46:56.411Z,99477.06
2022-12-26T08:49:23.891Z,99480.09
2022-12-26T08:51:51.591Z,99481.56
2022-12-26T08:54:20.443Z,99484.31
2022-12-26T08:56:47.925Z,99480.94
2022-12-26T08:59:15.643Z,99472.47
2022-12-26T09:01:43.214Z,99494.44
2022-12-26T09:04:13.565Z,99484.53
2022-12-26T09:06:41.247Z,99491.97
2022-12-26T09:09:14.192Z,99498.41
2022-12-26T09:11:43.506Z,99498.69
2022-12-26T09:14:11.050Z,99499.44
2022-12-26T09:16:49.138Z,99506.78
2022-12-26T09:19:18.331Z,99510.59
2022-12-26T09:21:46.213Z,99505.75
2022-12-26T09:24:15.429Z,99506.69
2022-12-26T09:26:45.105Z,99502.50
2022-12-26T09:29:13.749Z,99491.66
2022-12-26T09:31:41.476Z,99502.53
2022-12-26T09:34:09.395Z,99501.97
2022-12-26T09:36:38.840Z,99508.25
2022-12-26T09:39:07.238Z,99504.13
2022-12-26T09:42:00.933Z,99525.03
2022-12-26T09:44:35.538Z,99531.84
2022-12-26T09:47:16.219Z,99533.84
2022-12-26T09:49:51.976Z,99529.41
2022-12-26T09:52:28.123Z,99535.66
2022-12-26T09:55:01.507Z,99539.66
2022-12-26T09:57:38.977Z,99543.66
2022-12-26T10:00:08.941Z,99550.88
2022-12-26T10:02:36.521Z,99551.34
2022-12-26T10:05:04.155Z,99546.00
2022-12-26T10:07:40.145Z,99548.66
2022-12-26T10:10:12.045Z,99545.88
2022-12-26T10:12:57.593Z,99547.81
2022-12-26T10:15:43.827Z,99543.13
2022-12-26T10:18:31.431Z,99557.25
2022-12-26T10:21:15.426Z,99553.13
2022-12-26T10:23:46.676Z,99544.44
2022-12-26T10:26:18.117Z,99533.47
2022-12-26T10:28:52.613Z,99546.22
2022-12-26T10:31:25.774Z,99544.56
2022-12-26T10:33:57.821Z,99543.19
2022-12-26T10:36:34.150Z,99539.13
2022-12-26T10:39:03.990Z,99532.56
2022-12-26T10:41:37.756Z,99532.06
2022-12-26T10:44:06.739Z,99529.31
2022-12-26T10:46:48.074Z,99521.69
2022-12-26T10:49:18.364Z,99537.50
2022-12-26T10:51:46.209Z,99527.63
2022-12-26T10:54:17.722Z,99527.16
2022-12-26T10:56:49.907Z,99522.47
2022-12-26T10:59:21.780Z,99536.69
2022-12-26T11:01:50.667Z,99517.19
2022-12-26T11:04:44.474Z,99532.63
2022-12-26T11:07:12.127Z,99527.78
2022-12-26T11:09:42.469Z,99518.84
2022-12-26T11:12:21.927Z,99522.91
2022-12-26T11:14:58.158Z,99535.44
2022-12-26T11:17:28.693Z,99523.09
2022-12-26T11:20:26.694Z,99527.94
2022-12-26T11:22:54.772Z,99520.16
2022-12-26T11:25:24.899Z,99523.34
2022-12-26T11:27:54.775Z,99533.59
2022-12-26T11:30:26.899Z,99524.78
2022-12-26T11:33:14.899Z,99525.63
2022-12-26T11:35:55.815Z,99529.63
2022-12-26T11:38:40.891Z,99522.72
2022-12-26T11:41:36.057Z,99529.06
2022-12-26T11:44:13.735Z,99531.25
2022-12-26T11:46:45.440Z,99525.72
2022-12-26T11:49:20.713Z,99533.47
2022-12-26T11:51:50.633Z,99519.53
2022-12-26T11:54:28.486Z,99532.94
2022-12-26T11:57:20.208Z,99528.47
2022-12-26T11:59:48.851Z,99526.63
2022-12-26T12:02:29.568Z,99532.28
2022-12-26T12:05:01.738Z,99528.72
2022-12-26T12:07:51.031Z,99522.09
2022-12-26T12:10:44.700Z,99524.13
2022-12-26T12:13:19.383Z,99515.28
2022-12-26T12:15:55.090Z,99532.22
2022-12-26T12:18:36.860Z,99512.47
2022-12-26T12:21:14.786Z,99505.09
2022-12-26T12:24:19.513Z,99513.22
2022-12-26T12:27:04.592Z,99529.78
2022-12-26T12:29:43.238Z,99523.50
2022-12-26T12:32:17.980Z,99530.09
2022-12-26T12:35:30.507Z,99529.44
2022-12-26T12:38:19.526Z,99517.16
2022-12-26T12:40:52.627Z,99528.72
2022-12-26T12:43:28.389Z,99524.19
2022-12-26T12:46:05.689Z,99523.97
2022-12-26T12:49:03.183Z,99530.09
2022-12-26T12:51:38.572Z,99523.16
2022-12-26T12:54:42.878Z,99522.56
2022-12-26T12:57:18.116Z,99513.28
2022-12-26T12:59:53.037Z,99511.81
2022-12-26T13:02:26.434Z,99523.94
2022-12-26T13:05:00.474Z,99529.69
2022-12-26T13:07:33.824Z,99538.53
2022-12-26T13:10:04.746Z,99548.28
2022-12-26T13:12:36.654Z,99549.88
2022-12-26T13:15:09.888Z,99555.47
2022-12-26T13:17:46.200Z,99569.19
2022-12-26T13:20:18.867Z,99571.44
2022-12-26T13:23:12.152Z,99579.22
2022-12-26T13:25:44.281Z,99578.41
2022-12-26T13:28:18.746Z,99589.13
2022-12-26T13:30:46.536Z,99578.81
2022-12-26T13:33:17.031Z,99588.97
2022-12-26T13:35:53.179Z,99589.41
2022-12-26T13:38:23.628Z,99598.06
2022-12-26T13:40:57.207Z,99597.72
2022-12-26T13:43:43.297Z,99604.41
2022-12-26T13:46:37.042Z,99602.47
2022-12-26T13:49:04.738Z,99617.38
2022-12-26T13:52:00.612Z,99623.88
2022-12-26T13:54:32.007Z,99627.47
2022-12-26T13:57:24.383Z,99625.31
2022-12-26T14:00:26.810Z,99630.72
2022-12-26T14:03:20.732Z,99627.47
2022-12-26T14:06:16.398Z,99636.97
2022-12-26T14:08:57.702Z,99634.22
2022-12-26T14:11:43.806Z,99630.22
2022-12-26T14:14:24.673Z,99635.53
2022-12-26T14:16:58.391Z,99632.75
2022-12-26T14:19:40.892Z,99631.66
2022-12-26T14:22:14.042Z,99647.69
2022-12-26T14:24:52.443Z,99643.53
2022-12-26T14:27:34.382Z,99653.78
2022-12-26T14:30:18.339Z,99655.78
2022-12-26T14:32:58.185Z,99663.47
2022-12-26T14:35:34.253Z,99674.13
2022-12-26T14:38:22.973Z,99681.31
2022-12-26T14:41:01.515Z,99681.41
2022-12-26T14:43:39.582Z,99683.41
2022-12-26T14:46:46.103Z,99687.72
2022-12-26T14:49:21.774Z,99702.84
2022-12-26T14:51:49.744Z,99694.78
2022-12-26T14:54:33.534Z,99712.59
2022-12-26T14:57:01.352Z,99711.19
2022-12-26T14:59:32.767Z,99714.34
2022-12-26T15:02:11.536Z,99720.31
2022-12-26T15:05:04.106Z,99723.22
2022-12-26T15:08:05.045Z,99730.22
2022-12-26T15:10:52.567Z,99728.13
2022-12-26T15:14:01.903Z,99737.56
2022-12-26T15:16:55.425Z,99735.06
2022-12-26T15:20:00.173Z,99737.56
2022-12-26T15:23:07.220Z,99751.78
2022-12-26T15:25:58.403Z,99735.44
2022-12-26T15:28:57.274Z,99754.72
2022-12-26T15:31:59.607Z,99752.66
2022-12-26T15:34:56.256Z,99763.50
2022-12-26T15:37:37.772Z,99765.22
2022-12-26T15:40:14.685Z,99779.59
2022-12-26T15:42:54.976Z,99776.94
2022-12-26T15:45:34.443Z,99776.66
2022-12-26T15:48:12.118Z,99768.88
2022-12-26T15:50:52.925Z,99776.50
2022-12-26T15:53:32.856Z,99782.25
2022-12-26T15:56:29.048Z,99788.00
2022-12-26T15:59:34.353Z,99803.97
2022-12-26T16:02:02.420Z,99805.09
2022-12-26T16:04:37.747Z,99810.16
2022-12-26T16:07:17.745Z,99806.84
2022-12-26T16:09:46.666Z,99819.25
2022-12-26T16:12:26.913Z,99822.78
2022-12-26T16:15:03.098Z,99809.22
2022-12-26T16:17:31.148Z,99830.69
2022-12-26T16:20:00.177Z,99824.72
2022-12-26T16:22:46.462Z,99825.84
2022-12-26T16:25:17.912Z,99834.50
2022-12-26T16:27:47.003Z,99830.47
2022-12-26T16:30:18.861Z,99839.66
2022-12-26T16:32:47.291Z,99845.38
2022-12-26T16:35:21.554Z,99846.94
2022-12-26T16:37:50.910Z,99870.84
2022-12-26T16:40:23.676Z,99866.69
2022-12-26T16:43:00.518Z,99872.25
2022-12-26T16:45:31.127Z,99888.53
2022-12-26T16:47:59.308Z,99887.91
2022-12-26T16:50:30.203Z,99902.56
2022-12-26T16:53:11.655Z,99912.00
2022-12-26T16:55:43.117Z,99909.72
2022-12-26T16:58:17.519Z,99914.53
2022-12-26T17:00:51.452Z,99911.75
2022-12-26T17:03:27.342Z,99916.75
2022-12-26T17:05:57.128Z,99908.31
2022-12-26T17:08:25.918Z,99921.84
2022-12-26T17:10:53.792Z,99925.34
2022-12-26T17:13:25.894Z,99919.28
2022-12-26T17:15:58.189Z,99933.78
2022-12-26T17:18:42.545Z,99937.91
2022-12-26T17:21:23.398Z,99944.94
2022-12-26T17:24:16.040Z,99952.72
2022-12-26T17:26:44.694Z,99952.16
2022-12-26T17:29:51.727Z,99952.94
2022-12-26T17:32:31.207Z,99954.94
2022-12-26T17:35:02.020Z,99954.28
2022-12-26T17:37:31.511Z,99961.53
2022-12-26T17:40:05.579Z,99968.16
2022-12-26T17:42:42.944Z,99963.97
2022-12-26T17:45:15.907Z,99963.59
2022-12-26T17:47:43.467Z,99969.75
2022-12-26T17:50:11.185Z,99971.41
2022-12-26T17:52:40.134Z,99980.69
2022-12-26T17:55:16.487Z,99982.06
2022-12-26T17:57:44.187Z,99978.81
2022-12-26T18:00:17.242Z,99981.84
2022-12-26T18:02:44.866Z,99981.22
2022-12-26T18:05:12.987Z,99983.75
2022-12-26T18:07:42.733Z,99990.97
2022-12-26T18:10:18.122Z,100000.91
2022-12-26T18:12:45.493Z,100004.75
2022-12-26T18:15:12.993Z,100002.94
2022-12-26T18:17:40.926Z,100017.78
2022-12-26T18:20:09.775Z,100023.09
2022-12-26T18:22:37.317Z,100031.84
2022-12-26T18:25:07.144Z,100031.38
2022-12-26T18:27:35.031Z,100041.56
2022-12-26T18:30:02.753Z,100043.97
2022-12-26T18:32:31.846Z,100037.44
2022-12-26T18:34:59.962Z,100047.09
2022-12-26T18:37:29.649Z,100044.56
2022-12-26T18:39:57.511Z,100050.22
2022-12-26T18:42:27.214Z,100060.41
2022-12-26T18:44:55.283Z,100064.91
2022-12-26T18:47:23.297Z,100060.34
2022-12-26T18:49:51.073Z,100062.81
2022-12-26T18:52:18.675Z,100070.91
2022-12-26T18:54:46.563Z,100066.38
2022-12-26T18:57:21.188Z,100074.06
2022-12-26T18:59:50.072Z,100074.25
2022-12-26T19:02:19.702Z,100084.09
2022-12-26T19:04:48.174Z,100090.75
2022-12-26T19:07:16.982Z,100092.00
2022-12-26T19:09:45.417Z,100103.44
2022-12-26T19:12:13.353Z,100103.31
2022-12-26T19:14:41.832Z,100111.63
2022-12-26T19:17:10.668Z,100127.31
2022-12-26T19:19:38.175Z,100125.13
2022-12-26T19:22:05.954Z,100123.41
2022-12-26T19:24:34.289Z,100116.59
2022-12-26T19:27:02.198Z,100133.50
2022-12-26T19:29:29.896Z,100132.44
2022-12-26T19:31:57.449Z,100140.00
2022-12-26T19:34:26.390Z,100145.56
2022-12-26T19:36:56.261Z,100148.03
2022-12-26T19:39:23.765Z,100160.38
2022-12-26T19:41:51.241Z,100165.94
2022-12-26T19:44:18.925Z,100166.25
2022-12-26T19:46:46.858Z,100168.38
2022-12-26T19:49:14.337Z,100173.25
2022-12-26T19:51:43.188Z,100165.28
2022-12-26T19:54:13.144Z,100184.41
2022-12-26T19:56:41.009Z,100188.81
2022-12-26T19:59:08.491Z,100190.53
2022-12-26T20:01:36.052Z,100199.06
2022-12-26T20:04:06.860Z,100201.78
2022-12-26T20:06:36.673Z,100209.50
2022-12-26T20:09:08.565Z,100197.25
2022-12-26T20:11:37.675Z,100205.25
2022-12-26T20:14:07.214Z,100205.88
2022-12-26T20:17:04.293Z,100209.88
2022-12-26T20:19:25.070Z,100211.53
2022-12-26T20:21:52.990Z,100209.63
2022-12-26T20:24:22.900Z,100219.06
2022-12-26T20:26:51.134Z,100214.78
2022-12-26T20:29:19.125Z,100220.06
2022-12-26T20:31:46.965Z,100222.56
2022-12-26T20:34:14.888Z,100225.75
2022-12-26T20:36:42.800Z,100219.66
2022-12-26T20:39:14.985Z,100231.19
2022-12-26T20:41:44.460Z,100233.75
2022-12-26T20:44:13.394Z,100232.09
2022-12-26T20:46:41.959Z,100233.63
2022-12-26T20:49:11.845Z,100238.00
2022-12-26T20:51:41.782Z,100236.13
2022-12-26T20:54:10.585Z,100230.66
2022-12-26T20:56:39.162Z,100243.78
2022-12-26T20:59:08.520Z,100240.66
2022-12-26T21:01:37.376Z,100242.72
2022-12-26T21:04:05.202Z,100233.59
2022-12-26T21:06:34.923Z,100242.31
2022-12-26T21:09:03.138Z,100237.94
2022-12-26T21:11:32.423Z,100241.63
2022-12-26T21:14:01.733Z,100254.59
2022-12-26T21:16:33.246Z,100251.16
2022-12-26T21:19:00.765Z,100266.19
2022-12-26T21:21:30.162Z,100260.66
2022-12-26T21:23:59.277Z,100269.38
2022-12-26T21:26:27.071Z,100266.59
2022-12-26T21:28:58.078Z,100257.88
2022-12-26T21:31:25.599Z,100266.28
2022-12-26T21:33:56.054Z,100269.16
2022-12-26T21:36:24.021Z,100273.31
2022-12-26T21:38:52.672Z,100273.41
2022-12-26T21:41:20.588Z,100267.50
2022-12-26T21:43:48.434Z,100271.34
2022-12-26T21:46:17.942Z,100268.13
2022-12-26T21:48:47.805Z,100275.13
2022-12-26T21:51:17.286Z,100282.28
2022-12-26T21:53:45.252Z,100281.16
2022-12-26T21:56:13.645Z,100283.22
2022-12-26T21:58:59.222Z,100289.06
2022-12-26T22:01:27.469Z,100289.88
2022-12-26T22:04:13.187Z,100288.84
2022-12-26T22:06:42.442Z,100289.06
2022-12-26T22:09:10.684Z,100284.91
2022-12-26T22:11:56.010Z,100289.22
2022-12-26T22:14:24.580Z,100282.56
2022-12-26T22:16:52.650Z,100290.22
2022-12-26T22:19:20.270Z,100293.75
2022-12-26T22:21:49.083Z,100295.94
2022-12-26T22:24:16.558Z,100303.88
2022-12-26T22:26:44.195Z,100308.69
2022-12-26T22:29:11.696Z,100323.44
2022-12-26T22:31:39.573Z,100325.00
2022-12-26T22:34:09.074Z,100321.84
2022-12-26T22:36:36.891Z,100327.69
2022-12-26T22:39:06.649Z,100328.97
2022-12-26T22:41:34.836Z,100329.44
2022-12-26T22:44:02.358Z,100341.34
2022-12-26T22:46:30.031Z,100339.75
2022-12-26T22:48:57.523Z,100342.66
2022-12-26T22:51:26.564Z,100335.97
2022-12-26T22:53:54.883Z,100336.53
2022-12-26T22:56:24.311Z,100342.63
2022-12-26T22:58:53.825Z,100346.88
2022-12-26T23:01:22.471Z,100353.84
2022-12-26T23:03:50.279Z,100359.03
2022-12-26T23:06:20.815Z,100356.13
2022-12-26T23:08:49.135Z,100356.28
2022-12-26T23:11:17.509Z,100353.06
2022-12-26T23:13:47.032Z,100358.91
2022-12-26T23:16:24.365Z,100349.38
2022-12-26T23:19:11.845Z,100353.41
2022-12-26T23:21:42.124Z,100364.34
2022-12-26T23:24:14.161Z,100357.50
2022-12-26T23:26:43.637Z,100356.63
2022-12-26T23:29:37.700Z,100361.56
2022-12-26T23:32:06.305Z,100358.25
2022-12-26T23:34:34.221Z,100359.72
2022-12-26T23:37:02.151Z,100361.50
2022-12-26T23:39:29.663Z,100367.88
2022-12-26T23:41:57.169Z,100373.44
2022-12-26T23:44:26.065Z,100373.44
2022-12-26T23:46:53.553Z,100369.78
2022-12-26T23:49:21.027Z,100370.25
2022-12-26T23:51:51.361Z,100374.72
2022-12-26T23:54:20.571Z,100377.28
2022-12-26T23:56:48.062Z,100383.31
2022-12-26T23:59:15.549Z,100390.28
